Time;durP1;ratioP1;P1;durP2;ratioP2;P2;SDS_P1;SDS_P2;PMS_P1;PMS_P2;Temp;Humidity;BMP_temperature;BMP_pressure;BME280_temperature;BME280_humidity;BME280_pressure;Samples;Min_cycle;Max_cycle;Signal;HPM_P1;HPM_P2
2024/04/25 00:00:48;;;;;;;7.47;0.70;;;;;;;;;;5440742;26;19995;-79
2024/04/25 00:03:17;;;;;;;4.73;1.27;;;;;;;;;;5438912;26;19991;-78
2024/04/25 00:05:43;;;;;;;2.10;0.70;;;;;;;;;;5471592;26;20003;-84
2024/04/25 00:08:09;;;;;;;2.70;1.63;;;;;;;;;;5447366;26;20044;-84
2024/04/25 00:10:36;;;;;;;1.40;0.90;;;;;;;;;;5447181;26;20036;-79
2024/04/25 00:13:02;;;;;;;4.93;1.30;;;;;;;;;;5470713;26;20045;-82
2024/04/25 00:15:28;;;;;;;3.37;1.20;;;;;;;;;;5474093;26;20003;-84
2024/04/25 00:17:54;;;;;;;3.57;1.30;;;;;;;;;;5436785;26;19999;-80
2024/04/25 00:20:20;;;;;;;3.60;1.20;;;;;;;;;;5445276;26;20007;-81
2024/04/25 00:22:46;;;;;;;3.77;0.93;;;;;;;;;;5461729;26;20010;-84
2024/04/25 00:25:12;;;;;;;4.23;0.87;;;;;;;;;;5463106;26;19999;-84
2024/04/25 00:27:38;;;;;;;8.00;1.30;;;;;;;;;;5433055;26;20002;-84
2024/04/25 00:30:04;;;;;;;3.23;1.00;;;;;;;;;;5446283;26;20002;-76
2024/04/25 00:32:31;;;;;;;6.23;1.10;;;;;;;;;;5475566;26;20107;-83
2024/04/25 00:35:00;;;;;;;3.30;1.07;;;;;;;;;;5466850;26;20026;-82
2024/04/25 00:37:26;;;;;;;3.40;1.60;;;;;;;;;;5418156;26;19995;-80
2024/04/25 00:39:54;;;;;;;5.40;1.17;;;;;;;;;;5434657;26;19998;-81
2024/04/25 00:42:23;;;;;;;7.80;1.30;;;;;;;;;;5446032;26;20011;-77
2024/04/25 00:44:50;;;;;;;6.60;1.20;;;;;;;;;;5446342;26;19998;-82
2024/04/25 00:47:20;;;;;;;2.17;1.23;;;;;;;;;;5426070;26;20037;-82
2024/04/25 00:49:47;;;;;;;3.30;0.87;;;;;;;;;;5476654;26;20061;-84
2024/04/25 00:52:16;;;;;;;4.67;1.40;;;;;;;;;;5445626;26;20003;-84
2024/04/25 00:54:45;;;;;;;5.27;1.10;;;;;;;;;;5486879;26;20015;-83
2024/04/25 00:57:11;;;;;;;2.40;1.10;;;;;;;;;;5447106;26;20002;-83
2024/04/25 00:59:57;;;;;;;4.10;1.50;;;;;;;;;;5461435;26;20006;-84
2024/04/25 01:02:24;;;;;;;10.87;1.60;;;;;;;;;;5446250;26;20007;-83
2024/04/25 01:04:51;;;;;;;5.80;1.47;;;;;;;;;;5446209;26;19999;-84
2024/04/25 01:07:19;;;;;;;4.60;1.50;;;;;;;;;;5445756;26;19990;-84
2024/04/25 01:09:45;;;;;;;5.07;1.63;;;;;;;;;;5477898;26;20006;-84
2024/04/25 01:12:11;;;;;;;5.93;2.43;;;;;;;;;;5446886;26;19999;-84
2024/04/25 01:14:37;;;;;;;7.30;1.80;;;;;;;;;;5445617;26;19999;-77
2024/04/25 01:17:03;;;;;;;5.10;2.10;;;;;;;;;;5433765;26;20020;-75
2024/04/25 01:19:29;;;;;;;6.07;1.87;;;;;;;;;;5471130;26;20010;-75
2024/04/25 01:21:57;;;;;;;5.17;2.00;;;;;;;;;;5455397;26;20038;-73
2024/04/25 01:24:27;;;;;;;5.83;1.70;;;;;;;;;;5482514;26;19998;-75
2024/04/25 01:26:55;;;;;;;8.83;2.70;;;;;;;;;;5443946;26;19997;-74
2024/04/25 01:29:24;;;;;;;8.17;2.77;;;;;;;;;;5485275;26;19993;-74
2024/04/25 01:31:57;;;;;;;7.83;1.90;;;;;;;;;;5441029;26;19986;-75
2024/04/25 01:34:24;;;;;;;10.17;2.50;;;;;;;;;;5432775;26;20010;-75
2024/04/25 01:36:51;;;;;;;8.70;2.20;;;;;;;;;;5483302;26;20052;-75
2024/04/25 01:39:17;;;;;;;5.67;2.70;;;;;;;;;;5455124;26;19987;-75
2024/04/25 01:41:45;;;;;;;4.77;2.10;;;;;;;;;;5483028;26;20002;-75
2024/04/25 01:44:11;;;;;;;6.00;2.20;;;;;;;;;;5473705;26;20018;-75
2024/04/25 01:46:42;;;;;;;6.97;2.30;;;;;;;;;;5441345;26;19995;-78
2024/04/25 01:49:08;;;;;;;2.67;2.07;;;;;;;;;;5475216;26;20039;-76
2024/04/25 01:51:34;;;;;;;6.37;2.07;;;;;;;;;;5459168;26;20002;-77
2024/04/25 01:54:00;;;;;;;6.37;2.13;;;;;;;;;;5459095;26;20014;-77
2024/04/25 01:56:29;;;;;;;8.37;2.37;;;;;;;;;;5454883;26;20002;-77
2024/04/25 01:58:55;;;;;;;7.27;2.27;;;;;;;;;;5484752;26;20009;-78
2024/04/25 02:01:21;;;;;;;4.43;1.90;;;;;;;;;;5454349;26;20044;-78
2024/04/25 02:03:47;;;;;;;8.57;2.17;;;;;;;;;;5440571;26;19999;-78
2024/04/25 02:06:13;;;;;;;10.70;2.53;;;;;;;;;;5446007;26;20033;-79
2024/04/25 02:08:39;;;;;;;4.83;2.37;;;;;;;;;;5446659;26;19996;-79
2024/04/25 02:11:08;;;;;;;5.10;2.10;;;;;;;;;;5492591;26;20001;-79
2024/04/25 02:13:34;;;;;;;8.23;2.57;;;;;;;;;;5479173;26;19987;-79
2024/04/25 02:16:00;;;;;;;6.63;2.20;;;;;;;;;;5493685;26;19997;-79
2024/04/25 02:18:26;;;;;;;4.20;2.40;;;;;;;;;;5460110;26;19986;-78
2024/04/25 02:26:21;;;;;;;5.43;3.00;;;;;;;;;;5491138;26;20032;-79
2024/04/25 02:28:50;;;;;;;5.40;2.50;;;;;;;;;;5457405;26;20015;-78
2024/04/25 02:31:19;;;;;;;6.80;3.30;;;;;;;;;;5489642;26;19991;-79
2024/04/25 02:33:51;;;;;;;5.80;3.13;;;;;;;;;;5472170;26;20015;-79
2024/04/25 02:36:17;;;;;;;4.82;3.05;;;;;;;;;;5443768;26;19986;-79
2024/04/25 02:38:43;;;;;;;6.43;3.23;;;;;;;;;;5477166;26;20019;-79
2024/04/25 02:41:09;;;;;;;12.47;5.10;;;;;;;;;;5493460;26;20013;-78
2024/04/25 02:43:45;;;;;;;8.47;3.77;;;;;;;;;;5508696;21;20070;-78
2024/04/25 02:46:21;;;;;;;;;;;;;;;;;;;;;
2024/04/25 02:49:07;;;;;;;9.37;3.57;;;;;;;;;;5361253;26;20013;-78
2024/04/25 02:51:36;;;;;;;15.60;3.30;;;;;;;;;;5388873;26;20017;-78
2024/04/25 02:54:07;;;;;;;8.50;3.40;;;;;;;;;;5366915;26;20219;-77
2024/04/25 02:56:50;;;;;;;10.77;3.30;;;;;;;;;;5362740;26;20037;-77
2024/04/25 02:59:16;;;;;;;7.90;3.05;;;;;;;;;;5356973;26;20009;-78
2024/04/25 03:01:59;;;;;;;12.03;3.90;;;;;;;;;;5356381;26;19993;-78
2024/04/25 03:04:34;;;;;;;15.77;3.90;;;;;;;;;;5390219;26;20012;-78
2024/04/25 03:07:07;;;;;;;10.93;4.27;;;;;;;;;;5358795;26;20016;-77
2024/04/25 03:09:38;;;;;;;6.97;3.77;;;;;;;;;;5355242;26;20005;-79
2024/04/25 03:12:12;;;;;;;14.50;4.43;;;;;;;;;;5348366;26;20017;-78
2024/04/25 03:14:40;;;;;;;11.67;3.90;;;;;;;;;;5365939;26;19989;-78
2024/04/25 03:17:09;;;;;;;9.20;4.37;;;;;;;;;;5366551;26;19993;-77
2024/04/25 03:19:37;;;;;;;12.97;3.70;;;;;;;;;;5370245;26;20000;-77
2024/04/25 03:22:03;;;;;;;7.80;3.50;;;;;;;;;;5369974;26;19996;-77
2024/04/25 03:24:47;;;;;;;11.70;4.00;;;;;;;;;;5370444;26;19985;-76
2024/04/25 03:27:18;;;;;;;10.13;3.93;;;;;;;;;;5369583;26;20007;-77
2024/04/25 03:29:54;;;;;;;12.60;3.80;;;;;;;;;;5392319;26;19989;-77
2024/04/25 03:32:29;;;;;;;7.27;3.23;;;;;;;;;;5368974;26;19993;-78
2024/04/25 03:34:57;;;;;;;9.80;3.73;;;;;;;;;;5370007;26;20043;-77
2024/04/25 03:37:41;;;;;;;11.37;4.53;;;;;;;;;;5369959;26;19993;-77
2024/04/25 03:43:14;;;;;;;8.67;3.80;;;;;;;;;;5350862;26;20039;-77
2024/04/25 03:45:48;;;;;;;13.70;4.53;;;;;;;;;;5368499;26;19997;-77
2024/04/25 03:48:16;;;;;;;9.60;3.77;;;;;;;;;;5349859;26;20003;-77
2024/04/25 03:51:10;;;;;;;;;;;;;;;;;;;;;
2024/04/25 03:53:49;;;;;;;;;;;;;;;;;;;;;
2024/04/25 03:56:20;;;;;;;14.53;4.17;;;;;;;;;;5376775;26;20004;-76
2024/04/25 03:58:55;;;;;;;9.27;3.90;;;;;;;;;;5366202;26;20004;-78
2024/04/25 04:01:37;;;;;;;;;;;;;;;;;;;;;
2024/04/25 04:06:57;;;;;;;7.03;3.37;;;;;;;;;;5355223;26;19985;-76
2024/04/25 04:09:26;;;;;;;14.00;3.60;;;;;;;;;;5354543;26;19994;-76
2024/04/25 04:11:59;;;;;;;10.77;3.33;;;;;;;;;;5366565;26;20036;-76
2024/04/25 04:14:30;;;;;;;7.77;3.33;;;;;;;;;;5372594;26;19992;-76
2024/04/25 04:17:01;;;;;;;7.90;3.10;;;;;;;;;;5378315;26;19996;-76
2024/04/25 04:19:30;;;;;;;7.87;3.67;;;;;;;;;;5372761;26;20005;-76
2024/04/25 04:22:15;;;;;;;9.97;3.93;;;;;;;;;;5394480;26;19993;-76
2024/04/25 04:24:43;;;;;;;17.00;4.20;;;;;;;;;;5372602;26;19993;-76
2024/04/25 04:27:15;;;;;;;8.73;3.87;;;;;;;;;;5375322;26;20012;-76
2024/04/25 04:29:46;;;;;;;9.68;3.50;;;;;;;;;;5369966;26;20047;-76
2024/04/25 04:32:25;;;;;;;11.20;3.93;;;;;;;;;;5393752;26;20005;-76
2024/04/25 04:35:02;;;;;;;8.67;2.93;;;;;;;;;;5372974;26;19997;-76
2024/04/25 04:37:33;;;;;;;8.47;3.27;;;;;;;;;;5372508;26;20004;-76
2024/04/25 04:40:04;;;;;;;12.10;4.37;;;;;;;;;;5372277;26;19999;-76
2024/04/25 04:42:32;;;;;;;13.67;3.50;;;;;;;;;;5372078;26;20000;-76
2024/04/25 04:45:07;;;;;;;7.43;3.50;;;;;;;;;;5371223;26;19985;-75
2024/04/25 04:47:33;;;;;;;5.47;2.63;;;;;;;;;;5365713;26;20008;-75
2024/04/25 04:50:19;;;;;;;7.17;3.57;;;;;;;;;;5394525;26;20000;-76
2024/04/25 04:52:57;;;;;;;7.40;3.07;;;;;;;;;;5366295;26;20041;-75
2024/04/25 04:55:26;;;;;;;6.80;3.30;;;;;;;;;;5379195;26;20778;-75
2024/04/25 05:01:03;;;;;;;9.80;3.50;;;;;;;;;;5368945;26;19993;-75
2024/04/25 05:03:47;;;;;;;7.87;3.40;;;;;;;;;;5371667;26;19992;-76
2024/04/25 05:06:29;;;;;;;8.40;3.20;;;;;;;;;;5371861;26;19991;-76
2024/04/25 05:08:55;;;;;;;6.40;2.90;;;;;;;;;;5349183;26;20003;-75
2024/04/25 05:11:33;;;;;;;;;;;;;;;;;;;;;
2024/04/25 05:14:05;;;;;;;8.70;3.37;;;;;;;;;;5369035;26;19995;-76
2024/04/25 05:16:44;;;;;;;;;;;;;;;;;;;;;
2024/04/25 05:19:24;;;;;;;10.67;3.17;;;;;;;;;;5370915;26;20000;-75
2024/04/25 05:22:04;;;;;;;8.90;2.30;;;;;;;;;;5371112;26;19991;-75
2024/04/25 05:24:38;;;;;;;8.10;2.50;;;;;;;;;;5372151;26;19993;-76
2024/04/25 05:27:12;;;;;;;7.13;3.00;;;;;;;;;;5371430;26;19999;-76
2024/04/25 05:29:46;;;;;;;5.77;2.07;;;;;;;;;;5371313;26;19993;-77
2024/04/25 05:32:14;;;;;;;4.87;1.83;;;;;;;;;;5370486;26;19996;-75
2024/04/25 05:34:41;;;;;;;6.63;1.80;;;;;;;;;;5371438;26;20005;-76
2024/04/25 05:37:40;;;;;;;5.73;2.07;;;;;;;;;;5370677;26;19996;-76
2024/04/25 05:40:01;;;;;;;4.47;1.30;;;;;;;;;;5366584;26;19993;-77
2024/04/25 05:42:27;;;;;;;3.63;1.37;;;;;;;;;;5349295;26;20015;-76
2024/04/25 05:44:57;;;;;;;3.30;1.10;;;;;;;;;;5371327;26;19985;-75
2024/04/25 05:47:30;;;;;;;2.67;1.10;;;;;;;;;;5354091;26;20001;-76
2024/04/25 05:49:58;;;;;;;3.00;1.30;;;;;;;;;;5370645;26;19993;-76
2024/04/25 05:52:26;;;;;;;3.53;1.33;;;;;;;;;;5386709;26;20012;-77
2024/04/25 05:55:10;;;;;;;;;;;;;;;;;;;;;
2024/04/25 05:57:45;;;;;;;4.20;1.60;;;;;;;;;;5371408;26;19993;-75
2024/04/25 06:00:24;;;;;;;;;;;;;;;;;;;;;
2024/04/25 06:02:53;;;;;;;3.97;1.83;;;;;;;;;;5363016;26;19988;-76
2024/04/25 06:05:29;;;;;;;5.17;2.30;;;;;;;;;;5368144;26;20040;-74
2024/04/25 06:08:00;;;;;;;6.50;2.93;;;;;;;;;;5370027;26;20004;-75
2024/04/25 06:10:45;;;;;;;4.93;2.80;;;;;;;;;;5372190;26;20000;-76
2024/04/25 06:13:35;;;;;;;5.90;2.63;;;;;;;;;;5381631;26;19989;-75
2024/04/25 06:16:11;;;;;;;4.77;2.43;;;;;;;;;;5355785;26;20039;-75
2024/04/25 06:18:39;;;;;;;7.47;3.10;;;;;;;;;;5369309;26;20021;-75
2024/04/25 06:21:18;;;;;;;;;;;;;;;;;;;;;
2024/04/25 06:23:49;;;;;;;7.33;3.50;;;;;;;;;;5369887;26;19985;-74
2024/04/25 06:26:18;;;;;;;6.90;3.73;;;;;;;;;;5370701;26;20005;-74
2024/04/25 06:28:44;;;;;;;6.80;3.87;;;;;;;;;;5371068;26;20009;-74
2024/04/25 06:31:12;;;;;;;9.67;4.17;;;;;;;;;;5349843;26;19993;-75
2024/04/25 06:33:46;;;;;;;11.90;5.23;;;;;;;;;;5366793;26;20051;-74
2024/04/25 06:36:20;;;;;;;12.90;4.27;;;;;;;;;;5370465;26;20005;-78
2024/04/25 06:38:46;;;;;;;9.40;4.87;;;;;;;;;;5379951;26;19993;-74
2024/04/25 06:41:22;;;;;;;10.17;4.90;;;;;;;;;;5370418;26;19997;-74
2024/04/25 06:43:58;;;;;;;;;;;;;;;;;;;;;
2024/04/25 06:46:25;;;;;;;9.30;5.00;;;;;;;;;;5368176;26;19989;-74
2024/04/25 06:49:03;;;;;;;13.03;6.17;;;;;;;;;;5368172;26;19989;-75
2024/04/25 06:51:33;;;;;;;8.40;4.60;;;;;;;;;;5374427;26;20017;-75
2024/04/25 06:54:05;;;;;;;8.50;4.53;;;;;;;;;;5368592;26;20001;-75
2024/04/25 06:56:31;;;;;;;12.23;5.27;;;;;;;;;;5362033;26;20009;-74
2024/04/25 06:59:02;;;;;;;9.30;4.60;;;;;;;;;;5358333;26;20044;-75
2024/04/25 07:01:34;;;;;;;12.57;5.30;;;;;;;;;;5365834;26;19997;-75
2024/04/25 07:04:02;;;;;;;11.73;5.50;;;;;;;;;;5366762;26;20000;-75
2024/04/25 07:06:28;;;;;;;11.53;6.00;;;;;;;;;;5346829;26;19993;-75
2024/04/25 07:09:01;;;;;;;21.47;5.73;;;;;;;;;;5369393;26;20053;-76
2024/04/25 07:11:36;;;;;;;;;;;;;;;;;;5364291;26;19990;-75
2024/04/25 07:14:05;;;;;;;12.93;6.30;;;;;;;;;;5431252;21;19920;-75
2024/04/25 07:16:40;;;;;;;9.93;5.33;;;;;;;;;;5330759;26;19997;-75
2024/04/25 07:19:13;;;;;;;13.50;5.40;;;;;;;;;;5320265;27;19989;-76
2024/04/25 07:21:52;;;;;;;;;;;;;;;;;;;;;
2024/04/25 07:24:29;;;;;;;11.10;5.80;;;;;;;;;;5313406;26;20009;-75
2024/04/25 07:26:58;;;;;;;16.33;5.63;;;;;;;;;;5326861;27;19997;-74
2024/04/25 07:29:39;;;;;;;12.90;6.60;;;;;;;;;;5334896;27;19994;-75
2024/04/25 07:32:10;;;;;;;13.03;5.90;;;;;;;;;;5336857;27;19997;-76
2024/04/25 07:35:14;;;;;;;15.37;5.60;;;;;;;;;;5337764;26;20005;-75
2024/04/25 07:37:49;;;;;;;10.53;5.63;;;;;;;;;;5327999;27;20018;-73
2024/04/25 07:40:15;;;;;;;12.20;4.80;;;;;;;;;;5320241;27;20050;-75
2024/04/25 07:42:42;;;;;;;10.20;5.87;;;;;;;;;;5338315;27;19993;-76
2024/04/25 07:45:08;;;;;;;13.53;5.47;;;;;;;;;;5354962;26;20014;-75
2024/04/25 07:47:44;;;;;;;;;;;;;;;;;;;;;
2024/04/25 07:50:17;;;;;;;16.47;6.57;;;;;;;;;;5338434;26;19989;-76
2024/04/25 07:53:15;;;;;;;12.40;5.67;;;;;;;;;;5338054;26;20061;-75
2024/04/25 07:55:46;;;;;;;21.57;6.03;;;;;;;;;;5326567;27;20058;-75
2024/04/25 07:58:12;;;;;;;14.27;5.93;;;;;;;;;;5337873;27;19993;-76
2024/04/25 08:00:44;;;;;;;10.90;5.47;;;;;;;;;;5335968;27;19993;-75
2024/04/25 08:03:18;;;;;;;8.40;5.67;;;;;;;;;;5338243;26;20015;-75
2024/04/25 08:06:04;;;;;;;9.00;4.80;;;;;;;;;;5330494;26;20224;-75
2024/04/25 08:08:40;;;;;;;17.30;5.00;;;;;;;;;;5329125;27;19994;-75
2024/04/25 08:11:09;;;;;;;14.10;4.77;;;;;;;;;;5442329;21;20008;-74
2024/04/25 08:13:37;;;;;;;8.67;4.60;;;;;;;;;;5366421;26;19989;-76
2024/04/25 08:16:12;;;;;;;7.70;4.47;;;;;;;;;;5401222;26;20000;-73
2024/04/25 08:18:44;;;;;;;13.20;5.40;;;;;;;;;;5408766;26;20006;-74
2024/04/25 08:21:12;;;;;;;8.90;4.53;;;;;;;;;;5373470;26;19993;-74
2024/04/25 08:23:46;;;;;;;8.27;4.37;;;;;;;;;;5362523;26;20232;-74
2024/04/25 08:26:14;;;;;;;14.90;4.80;;;;;;;;;;5382654;26;20009;-75
2024/04/25 08:28:40;;;;;;;9.23;4.43;;;;;;;;;;5360785;26;19997;-75
2024/04/25 08:31:09;;;;;;;8.93;4.10;;;;;;;;;;5373963;26;20020;-76
2024/04/25 08:33:35;;;;;;;10.20;4.10;;;;;;;;;;5400129;26;19989;-75
2024/04/25 08:36:03;;;;;;;7.93;3.67;;;;;;;;;;5372654;26;20009;-75
2024/04/25 08:38:37;;;;;;;11.40;4.67;;;;;;;;;;5363317;26;19993;-74
2024/04/25 08:41:10;;;;;;;6.47;3.87;;;;;;;;;;5376738;26;19985;-75
2024/04/25 08:43:40;;;;;;;15.47;4.20;;;;;;;;;;5354917;26;20008;-74
2024/04/25 08:46:09;;;;;;;14.47;3.67;;;;;;;;;;5359329;26;20005;-75
2024/04/25 08:48:40;;;;;;;5.47;3.60;;;;;;;;;;5372670;26;20545;-76
2024/04/25 08:51:19;;;;;;;5.00;2.73;;;;;;;;;;5372633;26;20017;-75
2024/04/25 08:53:45;;;;;;;5.90;3.47;;;;;;;;;;5371985;26;19985;-75
2024/04/25 08:56:13;;;;;;;9.07;3.70;;;;;;;;;;5399871;26;19985;-75
2024/04/25 08:58:42;;;;;;;4.70;3.10;;;;;;;;;;5362640;26;20019;-74
2024/04/25 09:01:12;;;;;;;6.30;3.30;;;;;;;;;;5360516;26;19997;-76
2024/04/25 09:03:40;;;;;;;9.73;3.43;;;;;;;;;;5359997;26;20027;-76
2024/04/25 09:06:15;;;;;;;5.20;2.40;;;;;;;;;;5372151;26;20003;-75
2024/04/25 09:08:45;;;;;;;3.27;2.10;;;;;;;;;;5361070;26;19990;-75
2024/04/25 09:11:31;;;;;;;6.23;2.17;;;;;;;;;;5354784;26;19997;-75
2024/04/25 09:14:07;;;;;;;6.47;1.70;;;;;;;;;;5350365;26;20009;-75
2024/04/25 09:16:38;;;;;;;3.97;2.43;;;;;;;;;;5351911;26;20012;-75
2024/04/25 09:19:24;;;;;;;4.20;1.77;;;;;;;;;;5360272;26;19989;-73
2024/04/25 09:21:50;;;;;;;4.20;1.53;;;;;;;;;;5374826;26;19993;-75
2024/04/25 09:24:19;;;;;;;5.03;1.40;;;;;;;;;;5399879;26;19996;-83
2024/04/25 09:26:49;;;;;;;3.97;1.47;;;;;;;;;;5371448;26;19989;-74
2024/04/25 09:29:18;;;;;;;7.37;1.63;;;;;;;;;;5366406;26;20009;-76
2024/04/25 09:31:44;;;;;;;6.43;2.17;;;;;;;;;;5374420;26;20004;-80
2024/04/25 09:34:10;;;;;;;5.30;1.40;;;;;;;;;;5364396;26;19989;-73
2024/04/25 09:36:36;;;;;;;7.20;1.43;;;;;;;;;;5386034;26;19997;-73
2024/04/25 09:39:02;;;;;;;3.13;1.23;;;;;;;;;;5372431;26;19994;-79
2024/04/25 09:41:30;;;;;;;1.97;0.90;;;;;;;;;;5360944;26;19986;-76
2024/04/25 09:43:57;;;;;;;3.90;1.00;;;;;;;;;;5356448;26;19999;-73
2024/04/25 09:46:28;;;;;;;2.13;1.37;;;;;;;;;;5390585;26;19989;-74
2024/04/25 09:48:56;;;;;;;2.73;1.10;;;;;;;;;;5390294;26;19993;-72
2024/04/25 09:51:25;;;;;;;2.33;0.87;;;;;;;;;;5370567;26;20004;-77
2024/04/25 09:53:53;;;;;;;2.77;1.00;;;;;;;;;;5370329;26;19993;-76
2024/04/25 09:56:20;;;;;;;1.40;0.80;;;;;;;;;;5363427;26;20054;-73
2024/04/25 09:59:06;;;;;;;3.07;1.00;;;;;;;;;;5375025;26;20327;-74
2024/04/25 10:01:33;;;;;;;3.80;0.80;;;;;;;;;;5367774;26;19993;-74
2024/04/25 10:04:02;;;;;;;4.03;1.00;;;;;;;;;;5399517;26;20011;-74
2024/04/25 10:06:31;;;;;;;5.77;0.90;;;;;;;;;;5370084;26;20051;-73
2024/04/25 10:08:59;;;;;;;4.67;1.00;;;;;;;;;;5357301;26;20008;-79
2024/04/25 10:11:29;;;;;;;2.60;0.80;;;;;;;;;;5351535;26;20008;-79
2024/04/25 10:13:57;;;;;;;1.93;1.07;;;;;;;;;;5353751;26;20073;-76
2024/04/25 10:16:23;;;;;;;6.73;1.17;;;;;;;;;;5364895;26;19997;-78
2024/04/25 10:18:53;;;;;;;2.73;0.93;;;;;;;;;;5322534;27;20061;-79
2024/04/25 10:21:20;;;;;;;1.60;0.70;;;;;;;;;;5313870;27;20007;-75
2024/04/25 10:23:51;;;;;;;2.60;0.77;;;;;;;;;;5364254;26;20052;-74
2024/04/25 10:26:17;;;;;;;3.07;0.73;;;;;;;;;;5324732;27;20030;-73
2024/04/25 10:28:43;;;;;;;3.80;0.73;;;;;;;;;;5322983;26;20002;-75
2024/04/25 10:31:09;;;;;;;4.10;0.90;;;;;;;;;;5335983;26;20014;-73
2024/04/25 10:33:35;;;;;;;3.33;0.70;;;;;;;;;;5361831;26;20001;-74
2024/04/25 10:36:05;;;;;;;1.73;0.70;;;;;;;;;;5325714;27;20003;-72
2024/04/25 10:38:31;;;;;;;3.97;1.00;;;;;;;;;;5318171;27;20010;-72
2024/04/25 10:41:00;;;;;;;4.27;0.70;;;;;;;;;;5332079;27;19993;-72
2024/04/25 10:43:30;;;;;;;0.97;0.60;;;;;;;;;;5365322;26;20008;-72
2024/04/25 10:45:56;;;;;;;1.67;0.70;;;;;;;;;;5362440;26;19985;-73
2024/04/25 10:48:22;;;;;;;1.13;0.57;;;;;;;;;;5342091;26;19998;-72
2024/04/25 10:50:48;;;;;;;3.03;0.60;;;;;;;;;;5317003;27;19997;-74
2024/04/25 10:53:15;;;;;;;3.20;0.83;;;;;;;;;;5339457;26;19992;-73
2024/04/25 10:55:41;;;;;;;3.77;0.73;;;;;;;;;;5360916;26;19994;-79
2024/04/25 10:58:14;;;;;;;5.87;0.80;;;;;;;;;;5322469;27;19989;-74
2024/04/25 11:00:44;;;;;;;1.25;0.52;;;;;;;;;;5360842;26;20017;-73
2024/04/25 11:03:10;;;;;;;2.77;1.00;;;;;;;;;;5333064;26;19993;-77
2024/04/25 11:05:42;;;;;;;2.20;0.60;;;;;;;;;;5340528;26;20013;-72
2024/04/25 11:08:10;;;;;;;5.63;1.13;;;;;;;;;;5364865;26;19985;-73
2024/04/25 11:10:36;;;;;;;1.60;0.70;;;;;;;;;;5323435;26;20002;-75
2024/04/25 11:13:03;;;;;;;1.87;0.70;;;;;;;;;;5366022;26;20005;-77
2024/04/25 11:15:31;;;;;;;1.67;0.83;;;;;;;;;;5354009;26;19992;-75
2024/04/25 11:17:57;;;;;;;4.00;0.80;;;;;;;;;;5325143;26;19986;-74
2024/04/25 11:20:23;;;;;;;5.40;1.10;;;;;;;;;;5360156;26;19995;-74
2024/04/25 11:22:49;;;;;;;1.13;0.97;;;;;;;;;;5337491;26;20006;-75
2024/04/25 11:25:19;;;;;;;2.30;0.90;;;;;;;;;;5346245;26;19997;-75
2024/04/25 11:27:45;;;;;;;1.60;0.90;;;;;;;;;;5328595;26;20013;-74
2024/04/25 11:30:11;;;;;;;3.70;1.20;;;;;;;;;;5382537;26;19993;-73
2024/04/25 11:32:38;;;;;;;5.23;2.07;;;;;;;;;;5365663;26;20048;-73
2024/04/25 11:35:11;;;;;;;4.33;1.10;;;;;;;;;;5319099;26;19994;-74
2024/04/25 11:37:37;;;;;;;3.83;0.95;;;;;;;;;;5336575;26;19989;-77
2024/04/25 11:40:06;;;;;;;3.17;1.23;;;;;;;;;;5346298;26;20001;-74
2024/04/25 11:42:34;;;;;;;1.20;0.63;;;;;;;;;;5332268;26;19990;-74
2024/04/25 11:45:00;;;;;;;3.20;0.90;;;;;;;;;;5337921;26;19990;-73
2024/04/25 11:47:26;;;;;;;3.00;1.00;;;;;;;;;;5366847;26;20006;-74
2024/04/25 11:49:52;;;;;;;2.60;1.07;;;;;;;;;;5359848;26;20041;-74
2024/04/25 11:52:20;;;;;;;2.83;1.00;;;;;;;;;;5340496;26;20025;-76
2024/04/25 11:54:46;;;;;;;3.43;1.30;;;;;;;;;;5318043;26;19990;-73
2024/04/25 11:57:14;;;;;;;3.03;1.27;;;;;;;;;;5328439;26;20042;-74
2024/04/25 11:59:42;;;;;;;3.13;1.40;;;;;;;;;;5319951;26;19991;-77
2024/04/25 12:02:08;;;;;;;5.07;1.47;;;;;;;;;;5334948;26;19994;-74
2024/04/25 12:04:34;;;;;;;5.53;1.67;;;;;;;;;;5352522;26;20002;-74
2024/04/25 12:07:00;;;;;;;4.53;1.47;;;;;;;;;;5334241;26;20010;-74
2024/04/25 12:09:26;;;;;;;1.60;0.80;;;;;;;;;;5344235;26;20004;-73
2024/04/25 12:11:52;;;;;;;4.47;0.47;;;;;;;;;;5368339;26;19994;-74
2024/04/25 12:14:18;;;;;;;1.80;0.90;;;;;;;;;;5337585;26;20006;-73
2024/04/25 12:16:47;;;;;;;4.13;1.40;;;;;;;;;;5365735;26;19996;-73
2024/04/25 12:19:13;;;;;;;1.37;0.80;;;;;;;;;;5365886;26;19994;-76
2024/04/25 12:21:41;;;;;;;2.13;0.93;;;;;;;;;;5336983;26;20040;-73
2024/04/25 12:24:07;;;;;;;5.63;1.00;;;;;;;;;;5360626;26;20010;-73
2024/04/25 12:26:36;;;;;;;3.00;1.13;;;;;;;;;;5335044;26;20042;-75
2024/04/25 12:29:02;;;;;;;5.93;1.00;;;;;;;;;;5333852;26;19989;-74
2024/04/25 12:31:28;;;;;;;2.77;1.00;;;;;;;;;;5347619;26;20005;-73
2024/04/25 12:33:55;;;;;;;3.77;0.70;;;;;;;;;;5327285;26;19990;-73
2024/04/25 12:36:21;;;;;;;2.97;0.73;;;;;;;;;;5361952;26;20010;-75
2024/04/25 12:38:47;;;;;;;3.27;0.80;;;;;;;;;;5316721;26;19989;-74
2024/04/25 12:41:13;;;;;;;1.77;0.50;;;;;;;;;;5339313;26;20016;-74
2024/04/25 12:43:39;;;;;;;1.63;0.80;;;;;;;;;;5362882;26;19998;-74
2024/04/25 12:46:08;;;;;;;2.73;0.73;;;;;;;;;;5359174;26;19994;-74
2024/04/25 12:48:34;;;;;;;1.97;0.60;;;;;;;;;;5368646;26;20050;-74
2024/04/25 12:51:00;;;;;;;2.00;0.90;;;;;;;;;;5329668;26;19994;-74
2024/04/25 12:53:26;;;;;;;5.37;0.97;;;;;;;;;;5321782;26;20042;-73
2024/04/25 12:55:52;;;;;;;2.87;0.90;;;;;;;;;;5334709;26;19997;-74
2024/04/25 12:58:18;;;;;;;2.10;0.70;;;;;;;;;;5362993;26;19989;-73
2024/04/25 13:00:44;;;;;;;1.40;0.50;;;;;;;;;;5335868;26;20000;-74
2024/04/25 13:03:10;;;;;;;6.97;0.93;;;;;;;;;;5323047;26;19994;-74
2024/04/25 13:05:36;;;;;;;1.80;0.60;;;;;;;;;;5376058;26;20001;-74
2024/04/25 13:08:02;;;;;;;2.23;0.70;;;;;;;;;;5327215;26;20021;-74
2024/04/25 13:10:28;;;;;;;2.13;0.80;;;;;;;;;;5334219;26;19986;-75
2024/04/25 13:12:54;;;;;;;7.47;1.00;;;;;;;;;;5374167;26;19993;-73
2024/04/25 13:15:20;;;;;;;3.10;0.77;;;;;;;;;;5355291;26;20041;-73
2024/04/25 13:17:46;;;;;;;1.27;0.70;;;;;;;;;;5372973;26;20008;-72
2024/04/25 13:20:14;;;;;;;2.60;1.00;;;;;;;;;;5350088;26;20009;-75
2024/04/25 13:22:40;;;;;;;1.67;0.60;;;;;;;;;;5353842;26;20046;-74
2024/04/25 13:25:06;;;;;;;3.27;0.80;;;;;;;;;;5343700;26;20040;-74
2024/04/25 13:27:32;;;;;;;1.40;0.60;;;;;;;;;;5347890;26;20010;-73
2024/04/25 13:29:58;;;;;;;1.57;0.70;;;;;;;;;;5345306;26;20033;-73
2024/04/25 13:32:26;;;;;;;3.90;0.80;;;;;;;;;;5341299;26;20010;-73
2024/04/25 13:34:54;;;;;;;2.30;0.87;;;;;;;;;;5371588;26;20005;-73
2024/04/25 13:37:23;;;;;;;4.43;1.17;;;;;;;;;;5346862;26;20118;-73
2024/04/25 13:39:52;;;;;;;6.73;1.50;;;;;;;;;;5370948;26;20010;-73
2024/04/25 13:42:21;;;;;;;1.27;0.60;;;;;;;;;;5375206;26;19992;-73
2024/04/25 13:44:52;;;;;;;2.53;1.00;;;;;;;;;;5359079;26;20005;-74
2024/04/25 13:47:17;;;;;;;3.23;1.30;;;;;;;;;;5377179;26;20918;-76
2024/04/25 13:49:44;;;;;;;2.67;1.07;;;;;;;;;;5342973;26;20017;-74
2024/04/25 13:52:10;;;;;;;3.87;0.90;;;;;;;;;;5350637;26;20013;-73
2024/04/25 13:54:37;;;;;;;5.03;1.23;;;;;;;;;;5374529;26;20307;-72
2024/04/25 13:57:03;;;;;;;4.63;1.07;;;;;;;;;;5372729;26;20005;-73
2024/04/25 13:59:29;;;;;;;1.10;0.67;;;;;;;;;;5371679;26;19989;-73
2024/04/25 14:01:55;;;;;;;2.50;0.90;;;;;;;;;;5345389;26;20000;-74
2024/04/25 14:04:21;;;;;;;1.00;0.50;;;;;;;;;;5370787;26;20010;-74
2024/04/25 14:06:47;;;;;;;1.07;0.50;;;;;;;;;;5357903;26;19994;-73
2024/04/25 14:09:13;;;;;;;1.67;0.70;;;;;;;;;;5374584;26;19992;-74
2024/04/25 14:11:40;;;;;;;2.60;0.80;;;;;;;;;;5371534;26;20005;-73
2024/04/25 14:14:08;;;;;;;2.20;0.60;;;;;;;;;;5348531;26;19986;-74
2024/04/25 14:16:34;;;;;;;2.60;1.07;;;;;;;;;;5346361;26;20005;-73
2024/04/25 14:19:00;;;;;;;1.77;0.40;;;;;;;;;;5342784;26;19997;-74
2024/04/25 14:21:26;;;;;;;0.70;0.30;;;;;;;;;;5347956;26;20005;-74
2024/04/25 14:23:52;;;;;;;1.07;0.43;;;;;;;;;;5346890;26;19993;-74
2024/04/25 14:29:06;;;;;;;2.07;0.67;;;;;;;;;;5343552;26;20047;-74
2024/04/25 14:31:32;;;;;;;0.60;0.40;;;;;;;;;;5352124;26;19989;-73
2024/04/25 14:34:00;;;;;;;3.70;0.73;;;;;;;;;;5349191;26;20004;-73
2024/04/25 14:36:26;;;;;;;1.80;0.40;;;;;;;;;;5373081;26;19985;-74
2024/04/25 14:38:52;;;;;;;0.63;0.33;;;;;;;;;;5355680;26;20011;-74
2024/04/25 14:41:18;;;;;;;1.13;0.67;;;;;;;;;;5343276;26;19989;-73
2024/04/25 14:43:44;;;;;;;0.90;0.57;;;;;;;;;;5357539;26;20021;-73
2024/04/25 14:46:10;;;;;;;0.67;0.40;;;;;;;;;;5341891;26;20008;-74
2024/04/25 14:48:36;;;;;;;1.07;0.30;;;;;;;;;;5340560;26;19994;-74
2024/04/25 14:51:43;;;;;;;3.42;0.60;;;;;;;;;;5462307;25;20332;-72
2024/04/25 14:54:14;;;;;;;2.60;0.70;;;;;;;;;;5453360;25;19986;-72
2024/04/25 14:56:40;;;;;;;3.37;0.90;;;;;;;;;;5445475;26;20008;-74
2024/04/25 14:59:08;;;;;;;2.43;0.50;;;;;;;;;;5474246;25;20003;-72
2024/04/25 15:01:37;;;;;;;2.20;0.60;;;;;;;;;;5449207;26;19992;-75
2024/04/25 15:04:04;;;;;;;1.15;0.60;;;;;;;;;;5469225;25;20010;-75
2024/04/25 15:06:30;;;;;;;2.53;0.70;;;;;;;;;;5437827;26;20012;-74
2024/04/25 15:08:56;;;;;;;1.03;0.50;;;;;;;;;;5450741;25;19992;-74
2024/04/25 15:11:22;;;;;;;1.60;0.60;;;;;;;;;;5446806;25;20029;-74
2024/04/25 15:13:51;;;;;;;1.07;0.50;;;;;;;;;;5463574;26;19999;-75
2024/04/25 15:16:17;;;;;;;2.13;0.50;;;;;;;;;;5442062;26;19999;-75
2024/04/25 15:18:43;;;;;;;1.47;0.80;;;;;;;;;;5451470;26;19996;-74
2024/04/25 15:21:10;;;;;;;0.83;0.43;;;;;;;;;;5443029;26;20037;-76
2024/04/25 15:23:39;;;;;;;2.27;0.50;;;;;;;;;;5446128;26;19996;-74
2024/04/25 15:26:05;;;;;;;3.50;1.10;;;;;;;;;;5454987;26;20000;-75